Main page
METAR-TAF:

METAR-TAF

Airports :

Ubon Ratchathani Airport

Ubon Ratchathani, Thailand

latitude: 15-15N, longitude: 104-52E, elevation: 123 m

Current weather observation

The report was made 38 minutes ago, at 09:00 UTC
Wind 4 kt from the East, varying between North/Northeast and South/Southeast
Temperature 32°C
Humidity 34%
Pressure 1011 hPa
Visibility: 9000 m

METAR: VTUU 240900Z 09004KT 020V160 9000 NSC 32/14 Q1011 NOSIG

Time: 16:38 (09:38 UTC)

Forecast

The report was made 4 hours and 38 minutes ago, at 05:00 UTC
Forecast valid from 24 at 06 UTC to 25 at 06 UTC
Wind 5 kt from the Northeast
Visibility 10 km or more
no clouds below 1500 m and no cumulonimbus

TAF: VTUU 240500Z 2406/2506 05005KT CAVOK

Weather observations and forecasts of more than 4000 airports (METAR and TAF reports).

The available stations are represented by yellow and red dots on the map.

Hover mouse over dot to see the name of the station.

Then click to see weather observations and forecasts.

To change the map : click on the green buttons with a black cross to zoom in, on the green button with a dash to zoom out, or on the green arrows for adjacent maps.


METAR-TAF: